createdAt,value
2018-11-22T12:16:07.481Z,5.30
2018-11-22T12:19:10.422Z,5.28
2018-11-22T12:22:13.407Z,5.35
2018-11-22T12:25:18.202Z,5.40
2018-11-22T12:28:21.130Z,5.40
2018-11-22T12:31:24.096Z,5.41
2018-11-22T12:34:33.441Z,5.41
2018-11-22T12:37:43.372Z,5.42
2018-11-22T12:40:43.489Z,5.38
2018-11-22T12:43:50.820Z,5.36
2018-11-22T12:46:54.915Z,5.21
2018-11-22T12:50:00.304Z,5.19
2018-11-22T12:53:04.905Z,5.40
2018-11-22T12:56:08.940Z,5.23
2018-11-22T12:59:13.050Z,5.39
2018-11-22T13:02:18.353Z,5.45
2018-11-22T13:05:20.758Z,5.46
2018-11-22T13:08:24.533Z,5.49
2018-11-22T13:11:28.305Z,5.39
2018-11-22T13:14:31.273Z,5.35
2018-11-22T13:17:34.220Z,5.37
2018-11-22T13:20:37.195Z,5.53
2018-11-22T13:23:40.094Z,5.55
2018-11-22T13:26:42.986Z,5.41
2018-11-22T13:29:45.967Z,5.55
2018-11-22T13:32:49.610Z,5.53
2018-11-22T13:35:52.593Z,5.58
2018-11-22T13:38:55.530Z,5.58
2018-11-22T13:41:58.448Z,5.53
2018-11-22T13:45:05.904Z,5.35
2018-11-22T13:48:08.834Z,5.46
2018-11-22T13:51:11.777Z,5.41
2018-11-22T13:54:14.833Z,5.43
2018-11-22T13:57:17.775Z,5.49
2018-11-22T14:00:22.377Z,5.45
2018-11-22T14:03:25.249Z,5.41
2018-11-22T14:06:28.275Z,5.38
2018-11-22T14:09:33.512Z,5.38
2018-11-22T14:12:36.568Z,5.42
2018-11-22T14:15:40.215Z,5.39
2018-11-22T14:18:43.634Z,5.39
2018-11-22T14:21:47.125Z,5.35
2018-11-22T14:24:50.373Z,5.40
2018-11-22T14:27:53.793Z,5.35
2018-11-22T14:30:56.866Z,5.32
2018-11-22T14:33:59.998Z,5.33
2018-11-22T14:37:04.022Z,5.33
2018-11-22T14:40:11.361Z,5.28
2018-11-22T14:43:14.532Z,5.30
2018-11-22T14:46:18.209Z,5.31
2018-11-22T14:49:21.629Z,5.37
2018-11-22T14:52:24.868Z,5.34
2018-11-22T14:55:28.765Z,5.28
2018-11-22T14:58:31.851Z,5.28
2018-11-22T15:01:34.767Z,5.27
2018-11-22T15:04:38.144Z,5.32
2018-11-22T15:07:42.111Z,5.23
2018-11-22T15:10:45.397Z,5.23
2018-11-22T15:13:48.718Z,5.23
2018-11-22T15:16:53.465Z,5.20
2018-11-22T15:19:57.056Z,5.92
2018-11-22T15:23:00.831Z,5.88
2018-11-22T15:26:04.753Z,5.38
2018-11-22T15:29:07.849Z,5.16
2018-11-22T15:32:11.181Z,5.11
2018-11-22T15:35:15.690Z,5.04
2018-11-22T15:38:18.886Z,4.96
2018-11-22T15:41:22.962Z,4.99
2018-11-22T15:44:26.492Z,4.92
2018-11-22T15:47:29.699Z,4.88
2018-11-22T15:50:33.489Z,4.84
2018-11-22T15:53:36.958Z,4.78
2018-11-22T15:56:40.575Z,4.80
2018-11-22T15:59:43.770Z,4.70
2018-11-22T16:02:47.519Z,4.76
2018-11-22T16:05:50.917Z,4.66
2018-11-22T16:08:54.294Z,4.56
2018-11-22T16:11:58.881Z,4.59
2018-11-22T16:15:01.896Z,4.56
2018-11-22T16:18:05.020Z,4.42
2018-11-22T16:21:08.026Z,4.34
2018-11-22T16:24:10.942Z,4.35
2018-11-22T16:27:14.076Z,4.25
2018-11-22T16:30:20.530Z,4.27
2018-11-22T16:33:23.423Z,4.23
2018-11-22T16:36:26.395Z,4.18
2018-11-22T16:39:29.338Z,4.18
2018-11-22T16:42:32.239Z,4.21
2018-11-22T16:45:36.299Z,4.19
2018-11-22T16:48:39.235Z,4.25
2018-11-22T16:51:42.185Z,4.34
2018-11-22T16:54:45.224Z,4.25
2018-11-22T16:57:49.186Z,4.20
2018-11-22T17:00:52.174Z,4.24
2018-11-22T17:03:55.081Z,4.22
2018-11-22T17:06:58.002Z,4.25
2018-11-22T17:10:00.937Z,5.00
2018-11-22T17:13:04.523Z,4.76
2018-11-22T17:16:07.486Z,4.53
2018-11-22T17:19:10.466Z,4.39
2018-11-22T17:22:13.390Z,4.48
2018-11-22T17:25:17.729Z,4.40
2018-11-22T17:28:20.717Z,4.38
2018-11-22T17:31:23.615Z,4.39
2018-11-22T17:34:26.559Z,4.31
2018-11-22T17:37:29.480Z,5.14
2018-11-22T17:40:34.002Z,4.55
2018-11-22T17:43:36.954Z,4.50
2018-11-22T17:46:39.921Z,4.25
2018-11-22T17:49:42.924Z,4.14
2018-11-22T17:52:45.870Z,4.11
2018-11-22T17:55:48.827Z,4.06
2018-11-22T17:58:51.794Z,4.05
2018-11-22T18:01:54.740Z,3.93
2018-11-22T18:04:57.645Z,3.85
2018-11-22T18:08:00.669Z,3.86
2018-11-22T18:11:03.914Z,3.89
2018-11-22T18:14:06.937Z,3.82
2018-11-22T18:17:09.880Z,3.79
2018-11-22T18:20:17.887Z,3.69
2018-11-22T18:23:20.810Z,3.71
2018-11-22T18:26:23.735Z,3.69
2018-11-22T18:29:26.675Z,3.65
2018-11-22T18:32:29.613Z,3.56
2018-11-22T18:35:32.598Z,3.43
2018-11-22T18:38:35.520Z,3.48
2018-11-22T18:41:38.493Z,3.53
2018-11-22T18:44:41.426Z,3.39
2018-11-22T18:47:45.354Z,3.23
2018-11-22T18:50:48.331Z,3.21
2018-11-22T18:53:51.219Z,3.32
2018-11-22T18:56:54.189Z,3.45
2018-11-22T18:59:57.138Z,3.50
2018-11-22T19:03:02.494Z,3.16
2018-11-22T19:06:05.481Z,3.08
2018-11-22T19:09:08.968Z,3.22
2018-11-22T19:12:11.925Z,3.06
2018-11-22T19:15:16.147Z,2.94
2018-11-22T19:18:19.101Z,3.11
2018-11-22T19:21:22.081Z,2.88
2018-11-22T19:24:25.007Z,2.93
2018-11-22T19:27:27.957Z,2.87
2018-11-22T19:30:37.074Z,2.93
2018-11-22T19:33:35.178Z,2.69
2018-11-22T19:36:38.163Z,2.66
2018-11-22T19:39:41.125Z,2.56
2018-11-22T19:42:45.191Z,2.56
2018-11-22T19:45:48.926Z,2.54
2018-11-22T19:48:51.874Z,2.45
2018-11-22T19:51:54.779Z,2.83
2018-11-22T19:54:57.677Z,2.66
2018-11-22T19:58:01.897Z,2.51
2018-11-22T20:01:07.725Z,2.43
2018-11-22T20:04:08.098Z,2.63
2018-11-22T20:07:11.055Z,2.50
2018-11-22T20:10:20.914Z,2.38
2018-11-22T20:13:23.933Z,2.38
2018-11-22T20:16:26.878Z,2.48
2018-11-22T20:19:29.810Z,2.43
2018-11-22T20:22:32.706Z,2.37
2018-11-22T20:25:35.650Z,2.37
2018-11-22T20:28:38.561Z,2.40
2018-11-22T20:31:41.517Z,2.36
2018-11-22T20:34:44.481Z,2.31
2018-11-22T20:37:48.202Z,2.21
2018-11-22T20:40:57.265Z,2.26
2018-11-22T20:43:54.068Z,2.17
2018-11-22T20:46:58.406Z,2.32
2018-11-22T20:50:01.831Z,2.15
2018-11-22T20:53:05.970Z,2.36
2018-11-22T20:56:10.354Z,2.36
2018-11-22T20:59:13.473Z,2.13
2018-11-22T21:02:16.872Z,2.05
2018-11-22T21:05:21.393Z,2.03
2018-11-22T21:08:25.568Z,2.05
2018-11-22T21:11:29.796Z,2.06
2018-11-22T21:14:35.399Z,2.28
2018-11-22T21:17:39.160Z,2.38
2018-11-22T21:20:42.797Z,2.27
2018-11-22T21:23:46.306Z,2.34
2018-11-22T21:26:49.842Z,2.27
2018-11-22T21:29:53.438Z,2.13
2018-11-22T21:32:57.515Z,2.30
2018-11-22T21:36:01.031Z,2.35
2018-11-22T21:39:08.087Z,2.38
2018-11-22T21:42:11.228Z,2.45
2018-11-22T21:48:42.952Z,2.32
2018-11-22T21:51:47.817Z,2.48
2018-11-22T21:54:51.329Z,2.30
2018-11-22T21:57:58.365Z,2.31
2018-11-22T22:01:02.085Z,2.39
2018-11-22T22:04:05.893Z,2.31
2018-11-22T22:07:09.311Z,2.10
2018-11-22T22:10:12.911Z,2.27
2018-11-22T22:13:16.413Z,2.00
2018-11-22T22:16:20.821Z,2.01
2018-11-22T22:19:24.986Z,1.95
2018-11-22T22:22:29.875Z,1.88
2018-11-22T22:25:33.655Z,1.77
2018-11-22T22:28:37.217Z,1.85
2018-11-22T22:31:40.526Z,1.80
2018-11-22T22:34:43.574Z,1.81
2018-11-22T22:37:46.637Z,1.98
2018-11-22T22:40:49.991Z,1.92
2018-11-22T22:43:52.991Z,1.85
2018-11-22T22:46:55.983Z,1.87
2018-11-22T22:49:58.995Z,1.79
2018-11-22T22:53:02.083Z,1.78
2018-11-22T22:56:06.715Z,1.76
2018-11-22T22:59:09.798Z,1.78
2018-11-22T23:02:12.811Z,1.76
2018-11-22T23:05:15.882Z,1.65
2018-11-22T23:08:19.342Z,1.78
2018-11-22T23:11:22.907Z,1.67
2018-11-22T23:14:26.134Z,1.59
2018-11-22T23:17:29.144Z,1.48
2018-11-22T23:20:33.561Z,1.69
2018-11-22T23:23:36.622Z,1.86
2018-11-22T23:26:39.664Z,1.60
2018-11-22T23:29:42.787Z,1.75
2018-11-22T23:32:46.931Z,1.53
2018-11-22T23:35:49.958Z,1.58
2018-11-22T23:38:53.014Z,1.53
2018-11-22T23:41:55.975Z,1.49
2018-11-22T23:44:59.014Z,1.41
2018-11-22T23:48:01.970Z,1.40
2018-11-22T23:51:05.028Z,1.44
2018-11-22T23:54:08.063Z,1.47
2018-11-22T23:57:11.050Z,1.37
